createdAt,value
2024-04-15T00:00:08.416Z,4.73
2024-04-15T00:02:40.430Z,5.20
2024-04-15T00:05:08.134Z,5.17
2024-04-15T00:07:35.750Z,4.70
2024-04-15T00:10:03.446Z,4.53
2024-04-15T00:12:31.089Z,4.77
2024-04-15T00:14:58.657Z,4.33
2024-04-15T00:17:27.446Z,4.67
2024-04-15T00:19:55.212Z,4.77
2024-04-15T00:22:22.761Z,5.20
2024-04-15T00:24:50.362Z,4.87
2024-04-15T00:27:17.868Z,4.87
2024-04-15T00:29:45.514Z,4.53
2024-04-15T00:32:13.121Z,4.40
2024-04-15T00:34:40.654Z,4.90
2024-04-15T00:37:08.363Z,4.80
2024-04-15T00:39:37.307Z,4.27
2024-04-15T00:42:05.079Z,4.60
2024-04-15T00:44:36.036Z,4.57
2024-04-15T00:47:04.736Z,4.30
2024-04-15T00:49:33.664Z,4.37
2024-04-15T00:52:02.819Z,4.70
2024-04-15T00:54:33.114Z,4.47
2024-04-15T00:57:01.504Z,4.93
2024-04-15T00:59:30.918Z,4.67
2024-04-15T01:02:00.065Z,4.77
2024-04-15T01:04:27.744Z,4.23
2024-04-15T01:06:56.202Z,4.93
2024-04-15T01:09:24.702Z,5.00
2024-04-15T01:11:52.625Z,4.63
2024-04-15T01:14:20.645Z,4.50
2024-04-15T01:16:49.773Z,4.83
2024-04-15T01:19:17.371Z,4.57
2024-04-15T01:21:44.949Z,4.40
2024-04-15T01:24:12.837Z,4.50
2024-04-15T01:26:46.790Z,5.03
2024-04-15T01:29:14.623Z,4.70
2024-04-15T01:31:42.214Z,4.90
2024-04-15T01:34:09.798Z,4.90
2024-04-15T01:36:37.324Z,5.10
2024-04-15T01:39:04.837Z,5.00
2024-04-15T01:41:32.400Z,4.27
2024-04-15T01:43:59.946Z,4.40
2024-04-15T01:46:27.501Z,4.57
2024-04-15T01:48:55.128Z,4.00
2024-04-15T01:51:22.718Z,3.70
2024-04-15T01:53:50.511Z,4.23
2024-04-15T01:56:18.047Z,3.63
2024-04-15T01:58:45.535Z,4.00
2024-04-15T02:01:13.089Z,3.80
2024-04-15T02:03:42.013Z,2.83
2024-04-15T02:06:11.008Z,2.70
2024-04-15T02:08:38.587Z,2.90
2024-04-15T02:11:06.198Z,2.90
2024-04-15T02:13:33.725Z,2.83
2024-04-15T02:16:01.423Z,2.60
2024-04-15T02:18:29.105Z,2.57
2024-04-15T02:20:56.715Z,2.90
2024-04-15T02:23:24.230Z,2.67
2024-04-15T02:25:51.737Z,2.63
2024-04-15T02:28:19.267Z,2.70
2024-04-15T02:30:50.277Z,2.60
2024-04-15T02:33:17.940Z,2.70
2024-04-15T02:35:46.726Z,2.63
2024-04-15T02:38:14.236Z,2.77
2024-04-15T02:40:43.512Z,2.50
2024-04-15T02:43:12.039Z,2.50
2024-04-15T02:45:42.081Z,2.60
2024-04-15T02:48:09.659Z,2.77
2024-04-15T02:50:37.224Z,2.90
2024-04-15T02:53:04.728Z,2.77
2024-04-15T02:55:32.528Z,2.73
2024-04-15T02:58:00.088Z,2.40
2024-04-15T03:00:27.647Z,2.90
2024-04-15T03:02:55.364Z,2.80
2024-04-15T03:05:22.952Z,2.50
2024-04-15T03:07:50.508Z,2.63
2024-04-15T03:10:18.163Z,2.60
2024-04-15T03:12:49.663Z,2.60
2024-04-15T03:15:17.231Z,2.53
2024-04-15T03:17:49.068Z,2.93
2024-04-15T03:20:16.918Z,2.73
2024-04-15T03:22:50.694Z,3.37
2024-04-15T03:25:23.497Z,2.93
2024-04-15T03:27:51.258Z,2.80
2024-04-15T03:30:19.161Z,2.80
2024-04-15T03:32:46.740Z,2.50
2024-04-15T03:35:15.944Z,2.93
2024-04-15T03:37:44.027Z,3.00
2024-04-15T03:40:12.072Z,2.43
2024-04-15T03:42:39.750Z,2.20
2024-04-15T03:45:07.814Z,2.20
2024-04-15T03:47:35.547Z,2.63
2024-04-15T03:50:03.236Z,2.57
2024-04-15T03:52:32.072Z,2.50
2024-04-15T03:54:59.660Z,2.67
2024-04-15T03:57:27.271Z,2.50
2024-04-15T03:59:54.771Z,2.30
2024-04-15T04:02:22.297Z,2.50
2024-04-15T04:04:49.978Z,2.70
2024-04-15T04:07:18.954Z,2.93
2024-04-15T04:09:47.140Z,2.60
2024-04-15T04:12:15.048Z,2.67
2024-04-15T04:14:43.969Z,2.47
2024-04-15T04:17:11.686Z,2.97
2024-04-15T04:19:39.215Z,2.80
2024-04-15T04:22:07.095Z,2.70
2024-04-15T04:24:34.630Z,3.10
2024-04-15T04:27:02.226Z,2.80
2024-04-15T04:29:29.727Z,2.87
2024-04-15T04:31:57.268Z,3.20
2024-04-15T04:34:25.206Z,3.30
2024-04-15T04:36:53.316Z,3.10
2024-04-15T04:39:20.890Z,3.07
2024-04-15T04:41:48.480Z,3.17
2024-04-15T04:44:16.006Z,3.00
2024-04-15T04:46:45.115Z,3.43
2024-04-15T04:49:13.527Z,3.10
2024-04-15T04:51:41.075Z,3.40
2024-04-15T04:54:08.776Z,3.13
2024-04-15T04:56:36.314Z,3.53
2024-04-15T04:59:03.823Z,3.40
2024-04-15T05:01:31.778Z,3.40
2024-04-15T05:03:59.488Z,3.40
2024-04-15T05:06:27.049Z,3.53
2024-04-15T05:08:54.535Z,3.80
2024-04-15T05:11:22.144Z,3.30
2024-04-15T05:13:49.872Z,3.37
2024-04-15T05:16:18.121Z,3.67
2024-04-15T05:18:46.028Z,3.73
2024-04-15T05:21:17.524Z,3.87
2024-04-15T05:23:45.310Z,4.00
2024-04-15T05:26:12.865Z,3.50
2024-04-15T05:28:40.465Z,3.70
2024-04-15T05:31:08.001Z,3.83
2024-04-15T05:33:35.708Z,3.90
2024-04-15T05:36:03.266Z,4.10
2024-04-15T05:38:30.844Z,3.60
2024-04-15T05:40:58.500Z,3.80
2024-04-15T05:43:27.149Z,4.00
2024-04-15T05:45:54.769Z,3.97
2024-04-15T05:48:22.434Z,4.10
2024-04-15T05:50:49.991Z,3.90
2024-04-15T05:53:17.481Z,4.00
2024-04-15T05:55:45.084Z,4.20
2024-04-15T05:58:12.716Z,4.17
2024-04-15T06:00:40.291Z,3.93
2024-04-15T06:03:07.797Z,3.83
2024-04-15T06:05:35.496Z,4.67
2024-04-15T06:08:03.214Z,4.47
2024-04-15T06:10:30.781Z,4.73
2024-04-15T06:12:58.374Z,4.20
2024-04-15T06:15:26.109Z,4.70
2024-04-15T06:17:53.917Z,4.30
2024-04-15T06:20:22.900Z,4.50
2024-04-15T06:22:50.561Z,4.60
2024-04-15T06:25:18.286Z,4.77
2024-04-15T06:27:45.880Z,4.10
2024-04-15T06:30:13.473Z,4.03
2024-04-15T06:32:41.019Z,4.23
2024-04-15T06:35:12.107Z,4.23
2024-04-15T06:37:40.347Z,4.10
2024-04-15T06:40:08.498Z,4.63
2024-04-15T06:42:36.404Z,4.30
2024-04-15T06:45:04.113Z,4.80
2024-04-15T06:47:32.138Z,4.30
2024-04-15T06:49:59.663Z,4.30
2024-04-15T06:52:27.773Z,4.43
2024-04-15T06:54:55.918Z,4.87
2024-04-15T06:57:23.557Z,4.20
2024-04-15T06:59:51.099Z,4.80
2024-04-15T07:02:22.884Z,4.90
2024-04-15T07:04:54.703Z,4.20
2024-04-15T07:07:27.363Z,4.47
2024-04-15T07:09:57.449Z,4.33
2024-04-15T07:12:25.411Z,3.90
2024-04-15T07:14:52.921Z,4.00
2024-04-15T07:17:20.442Z,4.20
2024-04-15T07:19:48.366Z,4.13
2024-04-15T07:22:17.609Z,4.57
2024-04-15T07:24:45.810Z,3.60
2024-04-15T07:27:13.396Z,4.57
2024-04-15T07:29:41.097Z,4.43
2024-04-15T07:32:08.771Z,4.10
2024-04-15T07:34:37.508Z,4.33
2024-04-15T07:37:06.810Z,4.60
2024-04-15T07:39:34.344Z,5.03
2024-04-15T07:42:01.854Z,4.57
2024-04-15T07:44:29.353Z,4.83
2024-04-15T07:46:56.904Z,4.30
2024-04-15T07:49:24.562Z,5.10
2024-04-15T07:51:52.124Z,4.40
2024-04-15T07:54:19.641Z,4.67
2024-04-15T07:56:47.175Z,4.30
2024-04-15T07:59:14.897Z,4.47
2024-04-15T08:01:42.544Z,5.20
2024-04-15T08:04:11.217Z,4.67
2024-04-15T08:06:38.898Z,4.00
2024-04-15T08:09:08.386Z,4.80
2024-04-15T08:11:36.354Z,4.80
2024-04-15T08:14:03.999Z,4.87
2024-04-15T08:16:32.495Z,5.17
2024-04-15T08:19:00.407Z,4.30
2024-04-15T08:21:28.218Z,5.07
2024-04-15T08:23:55.800Z,4.90
2024-04-15T08:26:23.909Z,4.53
2024-04-15T08:28:51.440Z,4.17
2024-04-15T08:31:19.148Z,4.20
2024-04-15T08:33:47.084Z,5.00
2024-04-15T08:36:16.567Z,4.27
2024-04-15T08:38:46.006Z,4.43
2024-04-15T08:41:26.554Z,5.20
2024-04-15T08:44:06.804Z,5.33
2024-04-15T08:46:48.941Z,5.70
2024-04-15T08:49:16.980Z,5.00
2024-04-15T08:51:44.514Z,4.90
2024-04-15T08:54:12.364Z,5.30
2024-04-15T08:56:42.425Z,5.27
2024-04-15T08:59:12.630Z,5.17
2024-04-15T09:01:40.767Z,5.20
2024-04-15T09:04:09.509Z,5.50
2024-04-15T09:06:37.512Z,4.90
2024-04-15T09:09:05.007Z,6.10
2024-04-15T09:11:37.184Z,5.17
2024-04-15T09:14:04.804Z,5.73
2024-04-15T09:16:33.065Z,5.43
2024-04-15T09:19:01.197Z,5.53
2024-04-15T09:21:28.783Z,5.10
2024-04-15T09:23:56.723Z,5.30
2024-04-15T09:26:24.291Z,5.80
2024-04-15T09:28:52.123Z,6.27
2024-04-15T09:31:20.129Z,5.97
2024-04-15T09:33:49.390Z,6.13
2024-04-15T09:36:16.897Z,6.40
2024-04-15T09:38:46.723Z,5.87
2024-04-15T09:41:14.598Z,5.27
2024-04-15T09:43:45.342Z,5.93
2024-04-15T09:46:14.180Z,5.53
2024-04-15T09:48:43.410Z,6.17
2024-04-15T09:51:27.707Z,5.70
2024-04-15T09:53:58.715Z,6.60
2024-04-15T09:56:33.658Z,5.90
2024-04-15T09:59:04.145Z,6.60
2024-04-15T10:01:33.557Z,6.17
2024-04-15T10:04:05.329Z,5.83
2024-04-15T10:06:43.073Z,5.80
2024-04-15T10:09:14.267Z,6.50
2024-04-15T10:11:42.217Z,6.67
2024-04-15T10:14:13.204Z,6.77
2024-04-15T10:16:42.500Z,6.73
2024-04-15T10:19:28.743Z,7.40
2024-04-15T10:21:56.909Z,7.70
2024-04-15T10:24:24.819Z,7.77
2024-04-15T10:26:57.489Z,6.73
2024-04-15T10:29:29.451Z,6.53
2024-04-15T10:31:58.344Z,5.00
2024-04-15T10:34:27.966Z,5.20
2024-04-15T10:36:57.297Z,4.80
2024-04-15T10:39:25.575Z,3.50
2024-04-15T10:41:53.447Z,3.60
2024-04-15T10:44:21.536Z,3.70
2024-04-15T10:46:49.553Z,4.00
2024-04-15T10:49:18.272Z,4.40
2024-04-15T10:51:47.291Z,4.33
2024-04-15T10:54:15.149Z,4.37
2024-04-15T10:56:42.893Z,4.57
2024-04-15T10:59:17.523Z,5.03
2024-04-15T11:01:46.592Z,5.07
2024-04-15T11:04:14.989Z,4.47
2024-04-15T11:06:42.817Z,5.00
2024-04-15T11:09:10.752Z,5.10
2024-04-15T11:11:39.510Z,4.80
2024-04-15T11:14:12.307Z,5.03
2024-04-15T11:16:48.355Z,4.93
2024-04-15T11:19:17.623Z,5.87
2024-04-15T11:21:45.993Z,4.37
2024-04-15T11:24:14.100Z,4.33
2024-04-15T11:26:44.836Z,3.90
2024-04-15T11:29:13.611Z,4.10
2024-04-15T11:31:42.853Z,3.90
2024-04-15T11:34:11.277Z,4.30
2024-04-15T11:36:41.670Z,4.90
2024-04-15T11:39:09.399Z,5.00
2024-04-15T11:41:37.346Z,5.20
2024-04-15T11:44:05.129Z,5.30
2024-04-15T11:46:32.847Z,5.07
2024-04-15T11:49:01.317Z,4.90
2024-04-15T11:51:28.867Z,6.37
2024-04-15T11:53:57.089Z,5.40
2024-04-15T11:56:24.711Z,5.23
2024-04-15T11:58:52.251Z,4.70
2024-04-15T12:01:20.236Z,4.97
2024-04-15T12:03:48.898Z,5.50
2024-04-15T12:06:16.515Z,4.57
2024-04-15T12:08:45.508Z,4.77
2024-04-15T12:11:14.759Z,5.03
2024-04-15T12:13:42.330Z,5.00
2024-04-15T12:16:10.893Z,5.00
2024-04-15T12:18:38.480Z,4.83
2024-04-15T12:21:06.056Z,4.67
2024-04-15T12:23:33.666Z,5.00
2024-04-15T12:26:01.366Z,4.57
2024-04-15T12:28:28.980Z,4.63
2024-04-15T12:30:56.526Z,3.70
2024-04-15T12:33:24.064Z,3.53
2024-04-15T12:35:53.533Z,4.13
2024-04-15T12:38:21.723Z,3.37
2024-04-15T12:40:49.306Z,3.73
2024-04-15T12:43:16.871Z,3.40
2024-04-15T12:45:44.695Z,4.30
2024-04-15T12:48:19.783Z,3.37
2024-04-15T12:50:49.445Z,3.87
2024-04-15T12:53:17.282Z,3.37
2024-04-15T12:55:46.903Z,3.70
2024-04-15T12:58:15.076Z,3.80
2024-04-15T13:00:43.223Z,4.00
2024-04-15T13:03:10.915Z,3.70
2024-04-15T13:05:38.754Z,3.43
2024-04-15T13:08:06.782Z,3.33
2024-04-15T13:10:34.507Z,4.03
2024-04-15T13:13:02.193Z,3.73
2024-04-15T13:15:29.732Z,3.33
2024-04-15T13:17:59.674Z,3.27
2024-04-15T13:20:27.616Z,3.00
2024-04-15T13:23:00.621Z,3.13
2024-04-15T13:25:28.948Z,3.33
2024-04-15T13:27:57.146Z,3.20
2024-04-15T13:30:25.256Z,3.50
2024-04-15T13:32:53.707Z,3.17
2024-04-15T13:35:21.640Z,3.20
2024-04-15T13:37:49.547Z,2.93
2024-04-15T13:40:18.207Z,3.47
2024-04-15T13:42:45.848Z,3.43
2024-04-15T13:45:13.445Z,3.30
2024-04-15T13:47:41.059Z,3.60
2024-04-15T13:50:08.722Z,3.17
2024-04-15T13:52:36.326Z,4.10
2024-04-15T13:55:05.348Z,3.87
2024-04-15T13:57:33.547Z,3.83
2024-04-15T14:00:01.669Z,11.60
2024-04-15T14:02:39.997Z,12.60
2024-04-15T14:05:11.280Z,9.70
2024-04-15T14:07:44.101Z,3.60
2024-04-15T14:10:12.619Z,4.30
2024-04-15T14:12:40.352Z,3.57
2024-04-15T14:15:09.034Z,4.37
2024-04-15T14:17:36.734Z,3.60
2024-04-15T14:20:06.414Z,4.17
2024-04-15T14:22:34.057Z,3.10
2024-04-15T14:25:01.752Z,3.70
2024-04-15T14:27:31.028Z,3.20
2024-04-15T14:29:58.923Z,3.47
2024-04-15T14:32:26.579Z,3.40
2024-04-15T14:34:54.136Z,3.47
2024-04-15T14:37:21.737Z,3.00
2024-04-15T14:39:54.900Z,4.30
2024-04-15T14:42:27.414Z,3.20
2024-04-15T14:44:54.933Z,3.30
2024-04-15T14:47:22.637Z,3.70
2024-04-15T14:49:50.210Z,3.00
2024-04-15T14:52:20.229Z,3.20
2024-04-15T14:54:48.269Z,3.93
2024-04-15T14:57:16.276Z,3.17
2024-04-15T14:59:45.917Z,2.90
2024-04-15T15:02:15.482Z,3.00
2024-04-15T15:04:43.570Z,3.20
2024-04-15T15:07:12.605Z,3.83
2024-04-15T15:09:40.336Z,3.37
2024-04-15T15:12:07.962Z,3.83
2024-04-15T15:14:35.549Z,4.33
2024-04-15T15:17:04.688Z,3.00
2024-04-15T15:19:32.786Z,3.37
2024-04-15T15:22:00.410Z,2.70
2024-04-15T15:24:28.483Z,3.77
2024-04-15T15:26:56.267Z,2.70
2024-04-15T15:29:24.010Z,2.90
2024-04-15T15:31:51.990Z,3.20
2024-04-15T15:34:19.719Z,3.23
2024-04-15T15:36:48.431Z,3.10
2024-04-15T15:39:16.024Z,3.00
2024-04-15T15:41:43.509Z,3.77
2024-04-15T15:44:11.018Z,3.30
2024-04-15T15:46:38.986Z,3.40
2024-04-15T15:49:06.669Z,3.27
2024-04-15T15:51:40.336Z,3.27
2024-04-15T15:54:07.909Z,3.13
2024-04-15T15:56:38.830Z,3.50
2024-04-15T15:59:06.939Z,3.17
2024-04-15T16:01:38.597Z,3.20
2024-04-15T16:04:06.543Z,2.80
2024-04-15T16:06:34.232Z,3.40
2024-04-15T16:09:01.774Z,3.37
2024-04-15T16:11:39.343Z,2.77
2024-04-15T16:14:10.388Z,2.73
2024-04-15T16:16:38.159Z,3.20
2024-04-15T16:19:07.374Z,2.73
2024-04-15T16:21:38.653Z,3.10
2024-04-15T16:24:06.970Z,2.73
2024-04-15T16:26:35.419Z,2.83
2024-04-15T16:29:04.813Z,2.80
2024-04-15T16:31:33.217Z,3.10
2024-04-15T16:34:00.862Z,3.00
2024-04-15T16:36:30.101Z,3.50
2024-04-15T16:38:57.672Z,3.17
2024-04-15T16:41:25.819Z,3.20
2024-04-15T16:43:53.999Z,3.77
2024-04-15T16:46:22.441Z,2.70
2024-04-15T16:48:50.524Z,3.30
2024-04-15T16:51:18.052Z,2.90
2024-04-15T16:53:45.554Z,3.03
2024-04-15T16:56:13.130Z,3.03
2024-04-15T16:58:40.699Z,3.30
2024-04-15T17:01:09.210Z,3.30
2024-04-15T17:03:36.975Z,3.00
2024-04-15T17:06:04.863Z,2.90
2024-04-15T17:08:32.448Z,3.10
2024-04-15T17:11:00.065Z,3.10
2024-04-15T17:13:27.631Z,3.20
2024-04-15T17:15:55.289Z,3.23
2024-04-15T17:18:24.236Z,3.23
2024-04-15T17:20:51.821Z,2.73
2024-04-15T17:23:19.346Z,3.00
2024-04-15T17:25:46.879Z,3.30
2024-04-15T17:28:14.496Z,3.27
2024-04-15T17:30:42.036Z,3.20
2024-04-15T17:33:09.707Z,3.10
2024-04-15T17:35:37.427Z,3.27
2024-04-15T17:38:05.224Z,3.03
2024-04-15T17:40:32.828Z,3.10
2024-04-15T17:43:00.792Z,3.27
2024-04-15T17:45:28.512Z,3.37
2024-04-15T17:47:56.063Z,3.20
2024-04-15T17:50:23.663Z,3.03
2024-04-15T17:52:51.261Z,3.13
2024-04-15T17:55:20.122Z,3.20
2024-04-15T17:57:48.290Z,3.20
2024-04-15T18:00:19.842Z,3.00
2024-04-15T18:02:47.430Z,3.10
2024-04-15T18:05:15.108Z,3.00
2024-04-15T18:07:42.606Z,3.43
2024-04-15T18:10:10.926Z,3.00
2024-04-15T18:12:42.264Z,3.17
2024-04-15T18:15:09.935Z,2.90
2024-04-15T18:17:37.575Z,2.90
2024-04-15T18:20:06.212Z,2.53
2024-04-15T18:22:34.553Z,2.70
2024-04-15T18:25:02.304Z,3.40
2024-04-15T18:27:29.972Z,3.77
2024-04-15T18:29:57.758Z,4.53
2024-04-15T18:32:25.437Z,2.47
2024-04-15T18:34:52.997Z,2.87
2024-04-15T18:37:20.533Z,3.50
2024-04-15T18:39:48.074Z,3.10
2024-04-15T18:42:15.620Z,2.87
2024-04-15T18:44:43.712Z,3.30
2024-04-15T18:47:12.564Z,2.70
2024-04-15T18:49:40.064Z,2.87
2024-04-15T18:52:08.601Z,2.80
2024-04-15T18:54:36.167Z,2.50
2024-04-15T18:57:03.846Z,2.57
2024-04-15T18:59:31.368Z,2.50
2024-04-15T19:01:58.860Z,2.53
2024-04-15T19:04:26.523Z,2.20
2024-04-15T19:06:54.214Z,2.30
2024-04-15T19:09:21.718Z,2.00
2024-04-15T19:11:49.246Z,1.80
2024-04-15T19:14:16.797Z,1.97
2024-04-15T19:16:44.396Z,2.13
2024-04-15T19:19:13.448Z,1.90
2024-04-15T19:21:41.216Z,2.30
2024-04-15T19:24:08.774Z,2.03
2024-04-15T19:26:37.398Z,2.13
2024-04-15T19:29:05.538Z,1.73
2024-04-15T19:31:34.864Z,2.10
2024-04-15T19:34:02.727Z,2.23
2024-04-15T19:36:30.338Z,1.50
2024-04-15T19:38:58.018Z,3.17
2024-04-15T19:41:25.511Z,1.80
2024-04-15T19:43:53.075Z,1.63
2024-04-15T19:46:20.629Z,2.10
2024-04-15T19:48:48.326Z,2.03
2024-04-15T19:51:15.863Z,1.70
2024-04-15T19:53:43.399Z,1.57
2024-04-15T19:56:10.901Z,1.53
2024-04-15T19:58:38.446Z,1.60
2024-04-15T20:01:06.007Z,1.70
2024-04-15T20:03:34.565Z,1.70
2024-04-15T20:06:03.409Z,1.50
2024-04-15T20:08:32.573Z,1.40
2024-04-15T20:11:00.096Z,1.50
2024-04-15T20:13:27.803Z,1.47
2024-04-15T20:15:55.442Z,1.67
2024-04-15T20:18:34.280Z,1.23
2024-04-15T20:21:03.238Z,1.80
2024-04-15T20:23:33.105Z,1.50
2024-04-15T20:26:00.689Z,2.30
2024-04-15T20:28:28.316Z,2.13
2024-04-15T20:30:55.943Z,1.10
2024-04-15T20:33:23.538Z,1.63
2024-04-15T20:35:51.140Z,1.40
2024-04-15T20:38:18.652Z,1.27
2024-04-15T20:40:46.409Z,1.60
2024-04-15T20:43:13.953Z,1.37
2024-04-15T20:45:41.523Z,1.90
2024-04-15T20:48:09.268Z,1.43
2024-04-15T20:50:36.881Z,1.73
2024-04-15T20:53:05.586Z,1.73
2024-04-15T20:55:33.642Z,1.27
2024-04-15T20:58:01.546Z,1.20
2024-04-15T21:00:29.152Z,1.37
2024-04-15T21:02:58.713Z,1.60
2024-04-15T21:05:26.500Z,1.70
2024-04-15T21:07:54.219Z,1.67
2024-04-15T21:10:23.766Z,1.60
2024-04-15T21:12:51.335Z,1.80
2024-04-15T21:15:19.909Z,1.73
2024-04-15T21:17:47.447Z,1.30
2024-04-15T21:20:14.968Z,1.60
2024-04-15T21:22:42.462Z,1.50
2024-04-15T21:25:11.641Z,1.60
2024-04-15T21:27:39.284Z,1.43
2024-04-15T21:30:07.348Z,1.90
2024-04-15T21:32:34.879Z,1.60
2024-04-15T21:35:03.437Z,1.27
2024-04-15T21:37:31.119Z,1.60
2024-04-15T21:39:58.755Z,1.70
2024-04-15T21:42:26.296Z,1.47
2024-04-15T21:44:53.819Z,1.80
2024-04-15T21:47:21.401Z,1.50
2024-04-15T21:49:51.661Z,1.30
2024-04-15T21:52:21.123Z,1.60
2024-04-15T21:54:48.686Z,2.00
2024-04-15T21:57:16.245Z,1.50
2024-04-15T21:59:43.772Z,1.80
2024-04-15T22:02:11.290Z,1.47
2024-04-15T22:04:48.712Z,2.17
2024-04-15T22:07:26.338Z,1.60
2024-04-15T22:09:53.851Z,1.50
2024-04-15T22:12:21.404Z,1.47
2024-04-15T22:14:48.943Z,1.00
2024-04-15T22:17:16.480Z,1.00
2024-04-15T22:19:44.021Z,1.13
2024-04-15T22:22:12.080Z,1.10
2024-04-15T22:24:39.610Z,1.20
2024-04-15T22:27:07.147Z,1.20
2024-04-15T22:29:34.627Z,1.07
2024-04-15T22:32:02.206Z,1.00
2024-04-15T22:34:29.791Z,1.00
2024-04-15T22:36:57.383Z,1.00
2024-04-15T22:39:28.096Z,0.90
2024-04-15T22:41:57.081Z,0.83
2024-04-15T22:44:24.835Z,0.97
2024-04-15T22:46:52.375Z,0.80
2024-04-15T22:49:19.996Z,1.00
2024-04-15T22:51:47.538Z,0.70
2024-04-15T22:54:15.058Z,0.77
2024-04-15T22:56:48.437Z,0.80
2024-04-15T22:59:16.028Z,0.90
2024-04-15T23:01:43.618Z,1.10
2024-04-15T23:04:11.282Z,0.80
2024-04-15T23:06:40.873Z,0.80
2024-04-15T23:09:08.406Z,0.73
2024-04-15T23:11:35.929Z,0.93
2024-04-15T23:14:03.719Z,0.90
2024-04-15T23:16:32.841Z,0.83
2024-04-15T23:19:00.516Z,0.77
2024-04-15T23:21:28.115Z,0.80
2024-04-15T23:23:55.623Z,0.80
2024-04-15T23:26:23.210Z,0.70
2024-04-15T23:28:50.819Z,0.77
2024-04-15T23:31:18.746Z,0.70
2024-04-15T23:33:47.644Z,0.90
2024-04-15T23:36:15.146Z,0.70
2024-04-15T23:38:43.432Z,0.57
2024-04-15T23:41:10.852Z,0.57
2024-04-15T23:43:38.347Z,0.80
2024-04-15T23:46:24.952Z,0.70
2024-04-15T23:49:10.867Z,0.53
2024-04-15T23:51:57.074Z,0.70
2024-04-15T23:54:43.327Z,0.60
2024-04-15T23:57:29.914Z,0.70
2024-04-15T23:59:57.404Z,0.60
